Laman API Video Percuma Terbaik

AVDBAPI.COM

Cari katalog, semak rekod, dan salin URL API bersih daripada papan pemuka pantas.

Telegram Join Our Telegram Community for Updates!
Today
0
Kemaskini Hari Ini
Censored
314089
Censored Videos
Total
474268
Total Videos

Senarai Video

Rekod terkini disusun mengikut masa kemas kini.

ID Nama CODE Kategori Dikemaskini API
270297 100319-001 Cabaran 3P bersama transgender berbikini! Yuhime Elena 100319-001 Tanpa sensor 2025-08-29 18:47:50 API
270296 H4610-KI200425 Koleksi Video Permintaan Paling Hot H4610-KI200425 Tanpa sensor 2025-08-29 18:47:40 API
270295 H0930-ORI1536 Wanita Cantik Tachikawa Minori Berusia 29 Tahun H0930-ORI1536 Tanpa sensor 2025-08-29 18:47:30 API
270293 112918_01 Cinta seks yang hebat ini adalah kewujudan pertama saya 112918_01 Tanpa sensor 2025-08-29 18:47:10 API
270292 100419-001 Tak kira berapa kali aku pancut, tak boleh berhenti! ~ Rekod klimaks paling gila dalam hidupku! ~ Ema Kato 100419-001 Tanpa sensor 2025-08-29 18:47:00 API
270291 C0930-KI190101 Wanita Seksi 37 Tahun Takae Nohara C0930-KI190101 Tanpa sensor 2025-08-29 18:46:50 API
270290 053118-282 Wanita matang yang ghairah menitiskan cecair cinta pada bulu berus dan memancut ke merata tempat 053118-282 Tanpa sensor 2025-08-29 18:46:40 API
270289 K1344 Wanita Mangsa - K1344 Tanpa sensor 2025-08-29 18:46:30 API
270288 082417_571 Temujanji Seks di Selatan ~ Bahagian 1 ~ 082417_571 Tanpa sensor 2025-08-29 18:46:20 API
270287 HEYZO-2102 Noriko Blowjob Sopan & Pancut Dalam Mulut & Seks Tanpa Kondom HEYZO-2102 Tanpa sensor 2025-08-29 18:46:10 API
270286 H0930-KI190526 Kikuko Fujimoto Wanita Matang 45 Tahun H0930-KI190526 Tanpa sensor 2025-08-29 18:46:00 API
270285 060218-283 Isteri Orang Temujanji Dan Melakukan Seks Terbuka Di Omata 060218-283 Tanpa sensor 2025-08-29 18:45:50 API
270284 H4610-KI200428 Gadis Cantik 19 Tahun Riho Miyazaki H4610-KI200428 Tanpa sensor 2025-08-29 18:45:40 API
270282 120118-01 Amatur Tanpa Mekap ~ Tanpa Mekap Makin Menggila ~ 120118-01 Tanpa sensor 2025-08-29 18:45:20 API
270281 100519-001 Cucuk Sampai Dalam! Rosakkan Saya! Risa Onodera 100519-001 Tanpa sensor 2025-08-29 18:45:10 API
270280 K1343 Wanita Mangsa K1343 Tanpa sensor 2025-08-29 18:45:00 API
270279 082617_572 OL Cantik Kisaragi Juli Terus Naik Atas Untuk Kongkek 082617_572 Tanpa sensor 2025-08-29 18:44:50 API
270278 H0930-KI190528 Kimie Yamada, 35 tahun H0930-KI190528 Tanpa sensor 2025-08-29 18:44:40 API
270277 HEYZO-2085 Slut bergetah besar ni pandai sangat menggoda! HEYZO-2085 Tanpa sensor 2025-08-29 18:44:30 API
270276 C0930-KI190102 Festival Kata C0930-KI190102 Tanpa sensor 2025-08-29 18:44:20 API
270275 FC2-PPV-4383180 Bekas pelajar Ikki-kai yang cantik, pelajar perubatan! Gadis super popular Dedah muka penuh, payudara besar F cup, langsing montok! Pendedahan luar, seks luar bangunan! FC2-PPV-4383180 Tanpa sensor 2025-08-29 18:44:10 API
270274 060518-284 Dokumentasi penggambaran pertama isteri amatur 64 Yoko Fujii 060518-284 Tanpa sensor 2025-08-29 18:44:00 API
270273 082917_573 Wanita Nakal Dengan Garpu 082917_573 Tanpa sensor 2025-08-29 18:43:50 API
270272 K1345 Wanita Mangsa - K1345 Tanpa sensor 2025-08-29 18:43:40 API
270271 120418-01 Aku dimarahi sebab badan terlalu sensitif, sentuh sikit je terus stim 120418-01 Tanpa sensor 2025-08-29 18:43:30 API
270270 100819-001 Melekat! Raksasa lucah! Rei Kitajima 100819-001 Tanpa sensor 2025-08-29 18:43:20 API
270269 HEYZO-2086 Cabut kondom secara rahsia untuk buat creampie - Vol.17 HEYZO-2086 Tanpa sensor 2025-08-29 18:43:10 API
270268 H4610-KI200429 Spesial Blowjob & Handjob Gadis Berusia 20 Tahun H4610-KI200429 Tanpa sensor 2025-08-29 18:43:00 API
270267 H0930-KI190530 Sanae Hanasaki Wanita Matang 37 Tahun H0930-KI190530 Tanpa sensor 2025-08-29 18:42:50 API
270266 C0930-KI181231 Video Selfie Masturbasi Yang Menggiurkan C0930-KI181231 Tanpa sensor 2025-08-29 18:42:40 API
270265 060718-285 Mengintai Rumah Isteri Orang ~ Bilik Tidur Isteri Yang Wajahnya Mirip Anna Terkenal ~ 060718-285 Tanpa sensor 2025-08-29 18:42:30 API
270264 120618-01 Hebat! Terus kena kongkek tanpa mukadimah 120618-01 Tanpa sensor 2025-08-29 18:42:20 API
270263 090117_002 Koleksi Puki Natsumi Hirose 090117_002 Tanpa sensor 2025-08-29 18:42:10 API
270262 HEYZO-2087 Ciuman Tangan Menggoda Chie Aoi HEYZO-2087 Tanpa sensor 2025-08-29 18:42:00 API
270261 100919-001 Seperti Rama-rama ~ Soapland Kenderaan Dua Roda No. 10 di Pink Street ~ Yu Toyoda, Aoi Shino 100919-001 Tanpa sensor 2025-08-29 18:41:50 API
270260 H0930-ORI1537 Kana Tatemi Wanita Matang 41 Tahun Yang Menggiurkan H0930-ORI1537 Tanpa sensor 2025-08-29 18:41:40 API
270259 H4610-KI200502 Pakej Emas Gadis Berusia 20 Tahun H4610-KI200502 Tanpa sensor 2025-08-29 18:41:30 API
270258 060918-286 Biarkan Saya Beli Seluar Dalam Yang Saya Pakai Sekarang! ~ Seluar Dalam Putih Bersih Milik Wanita Mengandung Yang Comel ~ 060918-286 Tanpa sensor 2025-08-29 18:41:20 API
270257 HEYZO-2088 Lihatlah aksi nakal dan ghairah Chika sepuas hati anda HEYZO-2088 Tanpa sensor 2025-08-29 18:41:10 API
270255 120818-01 Gadis amatur sopan yang ketagih merakam aksi seks sendiri 120818-01 Tanpa sensor 2025-08-29 18:40:50 API
270254 C0930-KI190104 Orgi Amatur Pesta Seks Beramai C0930-KI190104 Tanpa sensor 2025-08-29 18:40:40 API
270253 FC2-PPV-4404432 Model kelab bola keranjang berwajah suci ada puting terbalik, di belakang teman lelakinya dia seorang cuckold yang suka hisap kote lelaki lain. Termasuk 2 video: satu di kafe siber semasa menayang badan dan FC2-PPV-4404432 Tanpa sensor 2025-08-29 18:40:30 API
270252 101019-001 Antologi Gadis Cup B Menawan: Megumi Shino, Kotomi Asakura, Ageha Kinoshita, Aisaki MIU, Iroha Kawashima 101019-001 Tanpa sensor 2025-08-29 18:40:20 API
270251 083117_574 Cara meningkatkan daya tarikan wanita Maki Hojo! 083117_574 Tanpa sensor 2025-08-29 18:40:10 API
270250 H0930-KI190602 Wanita Matang 51 Tahun Noriko Fukue H0930-KI190602 Tanpa sensor 2025-08-29 18:40:00 API
270249 121118-01 12118-01 Mahu jadi peneman masa kau onani? 121118-01 Tanpa sensor 2025-08-29 18:39:50 API
270248 061218-287 Buku Foto Lubang Kemaluan Isteri Orang 81 061218-287 Tanpa sensor 2025-08-29 18:39:40 API
270247 HEYZO-2103 Mahasiswi 21 Tahun Reina HEYZO-2103 Tanpa sensor 2025-08-29 18:39:30 API
270246 H4610-KI200430 Nana Hirosaki Gadis 19 Tahun yang Menggiurkan H4610-KI200430 Tanpa sensor 2025-08-29 18:39:20 API
270245 K1346 Wanita Mangsa K1346 Tanpa sensor 2025-08-29 18:39:10 API